Winslow, AZ

7:58 AM MST on January 26, 2015 (GMT -0700)
Mahoney Street | Change Station
CLOSE
Current Station
Personal Weather Station
Location: Winslow, AZ
Elevation: 4843 ft
Nearby Weather Stations

Elev 4843 ft 35.04 °N, 110.69 °W | Updated 6 minutes ago

Partly Cloudy
Partly Cloudy
26.5 °F
Feels Like 26 °F
N
3.0
Wind Variable Wind from North
Gusts 4.0 mph

Today
High -- | Low -- °F
--% Chance of Precip.
Yesterday
High -- | Low -- °F
Precip. -- in
7:25 AM 5:44 PM
Waxing Crescent, 44% visible
Pressure 30.39 in
Visibility 10.0 miles
Clouds Clear
Windchill 26 °F
Dew Point 23 °F
Humidity 87%
Rainfall 0.00 in
Snow Depth Not available.
UV 0 out of 12
Pollen 2.80 out of 12
Air Quality Not available.
Flu Activity Not available.
METAR KINW 261356Z AUTO 12004KT 10SM CLR M03/M05 A3034 RMK AO2 SLP291 T10331050

More Conditions Fewer Conditions

Pressure 30.39 in
Visibility 10.0 miles
Clouds Clear
Windchill 26 °F
Dew Point 23 °F
Humidity 87%
Rainfall 0.00 in
Snow Depth Not available.
UV 0 out of 12
Pollen 2.80 out of 12
Air Quality Not available.
Flu Activity Not available.
METAR KINW 261356Z AUTO 12004KT 10SM CLR M03/M05 A3034 RMK AO2 SLP291 T10331050

More Conditions Fewer Conditions

10-Day Weather Forecast

Almanac

Astronomy

Jan. 26, 2015 Rise Set
Actual Time
Civil Twilight
Nautical Twilight
Astronomical Twilight
Moon
Length of Visible Light
Length of Day
Tomorrow will be .
, % of the Moon is Illuminated

Today's Extremes

State Highs State Lows

Community

WunderPhotos

Upload Photos

1,790,226 photos uploaded!

WunderBlogs® & News

Nearby

Air Quality

  Air Quality AQ Index Pollutant
Not available.

Snow Depth

Station Depth Elevation

Earthquake Activity

City Distance Mag. Time & Date
Minimum magnitude displayed is 2.5.

Coastal Water Temperatures

Place Temperature

Nearby Weather Stations